Time;durP1;ratioP1;P1;durP2;ratioP2;P2;SDS_P1;SDS_P2;PMS_P1;PMS_P2;Temp;Humidity;BMP_temperature;BMP_pressure;BME280_temperature;BME280_humidity;BME280_pressure;Samples;Min_cycle;Max_cycle;Signal;HPM_P1;HPM_P2
2022/01/09 00:01:46;;;;;;;72.10;35.10;;;;;;;-0.92;71.17;99286.81;105928;1276;137948;-69
2022/01/09 00:04:17;;;;;;;66.40;34.70;;;;;;;-0.93;71.28;99282.38;106050;1276;112424;-70
2022/01/09 00:06:49;;;;;;;64.20;35.80;;;;;;;-0.95;71.05;99277.10;106033;1276;108831;-70
2022/01/09 00:09:21;;;;;;;62.90;34.00;;;;;;;-0.97;71.39;99273.86;105953;1276;137978;-69
2022/01/09 00:11:52;;;;;;;60.30;32.80;;;;;;;-0.99;71.11;99269.95;105998;1276;98022;-69
2022/01/09 00:14:24;;;;;;;61.30;32.70;;;;;;;-0.99;71.27;99267.38;105928;1276;138472;-69
2022/01/09 00:16:56;;;;;;;62.70;32.20;;;;;;;-0.98;71.40;99265.34;106029;1276;111435;-69
2022/01/09 00:19:28;;;;;;;62.00;32.60;;;;;;;-0.96;71.27;99266.02;105991;1276;138074;-68
2022/01/09 00:21:59;;;;;;;71.40;35.10;;;;;;;-0.94;71.49;99262.08;105979;1276;108906;-70
2022/01/09 00:24:31;;;;;;;64.80;34.60;;;;;;;-0.92;71.24;99264.13;106022;1276;97818;-70
2022/01/09 00:27:03;;;;;;;65.80;35.30;;;;;;;-0.92;71.33;99266.16;105916;1276;137758;-71
2022/01/09 00:29:35;;;;;;;70.10;36.30;;;;;;;-0.94;70.96;99258.67;106068;1276;112357;-71
2022/01/09 00:32:08;;;;;;;68.90;35.00;;;;;;;-0.95;71.10;99259.86;105876;1276;138836;-70
2022/01/09 00:34:40;;;;;;;69.50;34.40;;;;;;;-0.96;71.21;99259.53;107464;1276;108892;-70
2022/01/09 00:37:12;;;;;;;67.50;33.60;;;;;;;-0.98;71.24;99259.36;107060;1276;96548;-70
2022/01/09 00:39:44;;;;;;;66.10;32.70;;;;;;;-0.99;71.16;99256.30;105962;1276;139971;-70
2022/01/09 00:42:16;;;;;;;60.30;32.00;;;;;;;-1.00;71.27;99253.56;106080;1275;112980;-70
2022/01/09 00:44:48;;;;;;;63.60;33.30;;;;;;;-0.97;71.05;99252.88;105938;1276;139489;-69
2022/01/09 00:47:21;;;;;;;67.20;34.20;;;;;;;-0.95;71.06;99248.77;106045;1276;108981;-69
2022/01/09 00:49:53;;;;;;;63.50;33.60;;;;;;;-0.92;71.05;99249.79;105921;1276;138311;-70
2022/01/09 00:52:25;;;;;;;62.20;33.50;;;;;;;-0.91;71.20;99243.30;106104;1273;97942;-70
2022/01/09 00:54:57;;;;;;;66.70;34.60;;;;;;;-0.90;71.11;99239.90;106009;1276;112716;-69
2022/01/09 00:57:29;;;;;;;72.60;35.40;;;;;;;-0.89;71.01;99235.80;105924;1276;138113;-69
2022/01/09 01:00:01;;;;;;;69.50;36.00;;;;;;;-0.90;71.08;99239.91;106020;1276;108525;-69
2022/01/09 01:02:32;;;;;;;62.50;35.20;;;;;;;-0.93;70.91;99233.58;105899;1276;138056;-70
2022/01/09 01:05:06;;;;;;;66.10;33.70;;;;;;;-0.96;71.03;99231.04;105972;1276;97871;-70
2022/01/09 01:07:38;;;;;;;62.10;32.30;;;;;;;-1.00;70.95;99229.86;107353;1275;139392;-70
2022/01/09 01:10:15;;;;;;;62.70;32.50;;;;;;;-0.98;71.05;99219.95;106384;1276;108998;-69
2022/01/09 01:12:48;;;;;;;62.40;33.60;;;;;;;-0.95;71.24;99224.03;105976;1276;107120;-70
2022/01/09 01:15:20;;;;;;;67.00;33.40;;;;;;;-0.91;71.00;99219.41;106148;1276;139751;-69
2022/01/09 01:17:52;;;;;;;64.60;34.10;;;;;;;-0.90;71.07;99216.52;106073;1276;97932;-71
2022/01/09 01:20:24;;;;;;;62.70;33.20;;;;;;;-0.90;70.95;99213.27;105944;1276;137931;-70
2022/01/09 01:22:58;;;;;;;65.60;34.40;;;;;;;-0.90;71.00;99205.41;106001;1276;108622;-71
2022/01/09 01:25:30;;;;;;;66.30;35.80;;;;;;;-0.91;70.99;99204.73;105930;1276;138100;-71
2022/01/09 01:28:02;;;;;;;70.90;35.50;;;;;;;-0.93;70.79;99201.33;106020;1276;97806;-69
2022/01/09 01:30:35;;;;;;;68.90;34.60;;;;;;;-0.95;71.02;99196.39;106049;1276;97840;-70
2022/01/09 01:33:07;;;;;;;63.20;32.80;;;;;;;-0.97;70.85;99192.48;106312;1276;138676;-69
2022/01/09 01:35:39;;;;;;;58.80;31.00;;;;;;;-0.97;70.86;99196.58;106879;1275;107085;-70
2022/01/09 01:38:10;;;;;;;64.30;31.70;;;;;;;-0.98;71.07;99187.19;106726;1276;139301;-69
2022/01/09 01:40:42;;;;;;;66.20;33.50;;;;;;;-0.94;71.14;99187.52;106447;1276;97816;-69
2022/01/09 01:43:15;;;;;;;62.40;33.80;;;;;;;-0.91;70.92;99187.34;107496;1276;95854;-70
2022/01/09 01:45:46;;;;;;;62.90;35.00;;;;;;;-0.89;70.88;99181.20;106805;1274;137528;-69
2022/01/09 01:48:18;;;;;;;64.50;33.70;;;;;;;-0.86;71.10;99183.75;106613;1276;109602;-69
2022/01/09 01:50:51;;;;;;;63.60;33.80;;;;;;;-0.85;70.82;99181.70;107206;1276;138281;-69
2022/01/09 01:53:24;;;;;;;72.10;36.30;;;;;;;-0.84;71.19;99177.27;107473;1276;96165;-70
2022/01/09 01:55:57;;;;;;;68.00;35.30;;;;;;;-0.84;70.83;99176.06;107392;1276;137814;-69
2022/01/09 01:58:31;;;;;;;69.60;35.70;;;;;;;-0.87;70.48;99170.62;107516;1275;112520;-70
2022/01/09 02:01:03;;;;;;;69.10;34.60;;;;;;;-0.88;71.12;99172.16;107477;1275;109124;-70
2022/01/09 02:03:35;;;;;;;62.30;33.20;;;;;;;-0.89;71.11;99173.86;107352;1276;138808;-70
2022/01/09 02:06:07;;;;;;;62.90;33.90;;;;;;;-0.91;70.80;99170.96;107443;1275;96018;-69
2022/01/09 02:08:39;;;;;;;70.40;34.20;;;;;;;-0.91;70.70;99174.70;105974;1276;138232;-69
2022/01/09 02:11:10;;;;;;;65.20;35.00;;;;;;;-0.91;70.54;99171.80;106029;1276;111992;-70
2022/01/09 02:13:45;;;;;;;67.70;33.90;;;;;;;-0.92;70.49;99166.52;105999;1276;139170;-70
2022/01/09 02:16:18;;;;;;;65.60;35.60;;;;;;;-0.93;70.65;99164.82;106046;1276;108197;-68
2022/01/09 02:18:51;;;;;;;68.50;36.20;;;;;;;-0.95;70.74;99166.36;106032;1276;97828;-70
2022/01/09 02:21:23;;;;;;;69.50;36.10;;;;;;;-0.98;70.92;99163.14;105906;1274;137750;-70
2022/01/09 02:23:55;;;;;;;69.10;36.80;;;;;;;-1.01;70.78;99156.33;106051;1276;112433;-70
2022/01/09 02:26:27;;;;;;;65.80;35.70;;;;;;;-1.04;70.92;99150.88;106832;1276;138612;-70
2022/01/09 02:28:59;;;;;;;66.90;35.60;;;;;;;-1.07;70.95;99148.67;106929;1275;108823;-70
2022/01/09 02:31:31;;;;;;;69.70;34.80;;;;;;;-1.08;70.85;99139.10;106719;1276;138770;-69
2022/01/09 02:34:02;;;;;;;67.90;36.10;;;;;;;-1.06;70.91;99131.61;106151;1276;97897;-69
2022/01/09 02:36:34;;;;;;;72.50;37.10;;;;;;;-1.06;70.87;99138.27;106047;1276;112482;-70
2022/01/09 02:39:06;;;;;;;69.10;35.30;;;;;;;-1.06;70.77;99134.17;106712;1276;140526;-70
2022/01/09 02:41:38;;;;;;;71.30;35.40;;;;;;;-1.07;70.90;99133.83;107311;1276;107464;-70
2022/01/09 02:44:11;;;;;;;66.90;36.60;;;;;;;-1.09;70.91;99136.04;107374;1276;138080;-71
2022/01/09 02:46:55;;;;;;;68.10;36.90;;;;;;;-1.10;70.72;99130.23;107491;1276;96054;-70
2022/01/09 02:49:28;;;;;;;66.30;34.50;;;;;;;-1.10;71.02;99125.30;107165;1276;112693;-71
2022/01/09 02:52:04;;;;;;;63.80;33.70;;;;;;;-1.09;70.94;99129.38;107382;1276;138373;-71
2022/01/09 02:57:27;;;;;;;67.90;34.60;;;;;;;-1.03;70.83;99122.05;105993;1276;138671;-70
2022/01/09 02:59:59;;;;;;;69.60;34.00;;;;;;;-1.01;70.79;99121.86;107504;1276;95780;-71
2022/01/09 03:02:31;;;;;;;65.50;34.40;;;;;;;-0.99;70.94;99111.10;106102;1263;138138;-69
2022/01/09 03:05:03;;;;;;;66.40;35.10;;;;;;;-0.98;70.71;99112.80;105845;1276;108451;-70
2022/01/09 03:07:35;;;;;;;71.70;36.50;;;;;;;-0.99;70.77;99114.52;106055;1276;108483;-70
2022/01/09 03:10:08;;;;;;;67.90;35.30;;;;;;;-1.01;70.86;99111.63;105863;1276;137922;-70
2022/01/09 03:12:41;;;;;;;64.90;36.80;;;;;;;-1.05;70.70;99104.65;106783;1276;96582;-70
2022/01/09 03:15:14;;;;;;;66.30;34.30;;;;;;;-1.08;70.90;99103.29;105891;1276;137881;-70
2022/01/09 03:17:46;;;;;;;63.40;32.60;;;;;;;-1.11;70.78;99096.13;106068;1276;108815;-70
2022/01/09 03:20:21;;;;;;;63.40;32.90;;;;;;;-1.12;70.94;99100.91;105936;1276;138777;-70
2022/01/09 03:22:53;;;;;;;61.40;31.40;;;;;;;-1.13;70.95;99096.99;107527;1276;97210;-71
2022/01/09 03:25:26;;;;;;;71.50;34.10;;;;;;;-1.12;70.84;99102.95;106218;1276;97839;-70
2022/01/09 03:27:59;;;;;;;60.00;32.60;;;;;;;-1.10;70.93;99100.39;105946;1276;138390;-70
2022/01/09 03:30:31;;;;;;;60.20;33.80;;;;;;;-1.09;71.05;99105.16;106120;1274;109124;-70
2022/01/09 03:33:03;;;;;;;64.20;34.20;;;;;;;-1.08;71.04;99103.13;105953;1276;137870;-70
2022/01/09 03:35:34;;;;;;;72.70;34.30;;;;;;;-1.10;71.12;99099.53;106038;1276;97875;-72
2022/01/09 03:38:07;;;;;;;70.10;34.60;;;;;;;-1.11;70.67;99101.92;105909;1276;137790;-71
2022/01/09 03:40:39;;;;;;;71.00;35.00;;;;;;;-1.13;70.97;99100.75;106008;1276;112321;-70
2022/01/09 03:43:11;;;;;;;68.70;34.20;;;;;;;-1.16;70.80;99100.23;107550;1275;108996;-69
2022/01/09 03:45:43;;;;;;;62.80;33.90;;;;;;;-1.17;71.23;99102.81;106109;1276;138603;-70
2022/01/09 03:48:15;;;;;;;63.00;33.90;;;;;;;-1.18;71.21;99100.27;106028;1276;97881;-70
2022/01/09 03:50:51;;;;;;;64.30;33.80;;;;;;;-1.18;71.33;99102.81;105922;1276;138392;-69
2022/01/09 03:53:23;;;;;;;67.60;34.20;;;;;;;-1.17;71.39;99099.91;106045;1276;112338;-71
2022/01/09 03:55:55;;;;;;;68.40;34.70;;;;;;;-1.16;71.30;99099.39;105958;1276;138027;-70
2022/01/09 03:58:27;;;;;;;65.20;35.50;;;;;;;-1.18;71.54;99097.53;106116;1276;107506;-70
2022/01/09 04:00:59;;;;;;;69.00;33.80;;;;;;;-1.21;71.07;99099.77;106039;1276;98237;-70
2022/01/09 04:03:32;;;;;;;68.70;35.80;;;;;;;-1.25;71.42;99095.67;105953;1276;137910;-70
2022/01/09 04:06:04;;;;;;;64.80;34.30;;;;;;;-1.30;71.26;99100.11;106042;1276;112708;-72
2022/01/09 04:08:38;;;;;;;67.00;34.80;;;;;;;-1.35;71.45;99100.64;105944;1276;139649;-71
2022/01/09 04:11:22;;;;;;;65.50;33.80;;;;;;;-1.39;71.62;99098.27;105936;1276;108865;-70
2022/01/09 04:13:54;;;;;;;60.10;32.50;;;;;;;-1.44;71.73;99101.35;107341;1276;140522;-70
2022/01/09 04:16:28;;;;;;;65.30;34.00;;;;;;;-1.46;72.09;99101.52;106893;1276;96397;-71
2022/01/09 04:19:02;;;;;;;69.20;36.30;;;;;;;-1.51;72.04;99103.58;106069;1276;111853;-70
2022/01/09 04:21:34;;;;;;;70.80;36.40;;;;;;;-1.55;72.09;99107.01;105964;1276;138818;-70
2022/01/09 04:24:06;;;;;;;73.40;36.10;;;;;;;-1.60;72.08;99108.05;106068;1276;107876;-71
2022/01/09 04:26:39;;;;;;;71.70;36.30;;;;;;;-1.65;72.29;99105.81;106320;1276;137905;-70
2022/01/09 04:29:10;;;;;;;65.20;35.50;;;;;;;-1.70;72.58;99102.25;106041;1276;97841;-70
2022/01/09 04:31:42;;;;;;;63.30;35.10;;;;;;;-1.74;72.64;99099.02;106077;1276;112488;-70
2022/01/09 04:34:14;;;;;;;67.70;35.50;;;;;;;-1.78;72.61;99101.08;105946;1276;138515;-70
2022/01/09 04:36:46;;;;;;;66.60;35.10;;;;;;;-1.80;72.70;99098.85;106035;1276;108184;-69
2022/01/09 04:39:18;;;;;;;66.80;34.90;;;;;;;-1.82;73.02;99101.23;105784;1276;138683;-68
2022/01/09 04:41:49;;;;;;;62.40;33.30;;;;;;;-1.84;72.90;99102.42;106106;1276;98303;-70
2022/01/09 04:44:21;;;;;;;76.00;37.20;;;;;;;-1.83;73.28;99101.40;106044;1276;138995;-69
2022/01/09 04:46:58;;;;;;;69.20;36.30;;;;;;;-1.83;73.40;99096.80;106079;1276;107741;-69
2022/01/09 04:49:39;;;;;;;69.90;35.80;;;;;;;-1.83;72.92;99090.84;106108;1276;106284;-70
2022/01/09 04:52:14;;;;;;;71.40;36.90;;;;;;;-1.83;73.26;99092.20;105967;1276;137112;-69
2022/01/09 04:54:47;;;;;;;70.00;37.50;;;;;;;-1.84;73.22;99088.11;106091;1276;97855;-69
2022/01/09 04:57:19;;;;;;;69.80;36.50;;;;;;;-1.86;73.15;99086.59;105972;1276;137732;-69
2022/01/09 04:59:51;;;;;;;68.50;35.20;;;;;;;-1.88;73.55;99085.91;106015;1276;108020;-70
2022/01/09 05:02:22;;;;;;;61.70;34.00;;;;;;;-1.89;73.37;99087.79;106170;1276;139663;-70
2022/01/09 05:04:54;;;;;;;66.10;34.70;;;;;;;-1.87;73.59;99078.24;107483;1276;96015;-70
2022/01/09 05:07:26;;;;;;;72.70;35.50;;;;;;;-1.85;73.56;99077.05;106484;1276;97898;-70
2022/01/09 05:09:58;;;;;;;71.90;36.50;;;;;;;-1.84;73.81;99077.89;105951;1276;138726;-69
2022/01/09 05:12:30;;;;;;;70.90;36.40;;;;;;;-1.84;73.70;99077.73;106019;1276;109079;-70
2022/01/09 05:15:02;;;;;;;72.30;38.40;;;;;;;-1.85;73.65;99078.40;105928;1276;141089;-70
2022/01/09 05:17:34;;;;;;;70.80;34.90;;;;;;;-1.86;73.71;99074.83;106026;1276;97858;-69
2022/01/09 05:20:08;;;;;;;65.10;34.10;;;;;;;-1.86;73.51;99071.08;105893;1276;138513;-69
2022/01/09 05:22:40;;;;;;;64.10;33.80;;;;;;;-1.86;73.70;99068.19;107491;1275;112488;-69
2022/01/09 05:25:12;;;;;;;65.90;34.80;;;;;;;-1.83;73.63;99065.45;107361;1276;109094;-71
2022/01/09 05:27:44;;;;;;;67.70;34.90;;;;;;;-1.78;73.66;99066.14;107309;1276;138073;-70
2022/01/09 05:30:16;;;;;;;67.00;34.90;;;;;;;-1.76;73.31;99064.27;107214;1276;97785;-70
2022/01/09 05:32:48;;;;;;;72.90;35.40;;;;;;;-1.76;73.01;99064.77;105990;1276;137840;-69
2022/01/09 05:35:20;;;;;;;71.50;35.60;;;;;;;-1.76;73.24;99063.07;106005;1276;115494;-69
2022/01/09 05:37:51;;;;;;;64.00;35.50;;;;;;;-1.77;73.05;99065.97;106039;1276;107822;-70
2022/01/09 05:40:23;;;;;;;65.40;33.80;;;;;;;-1.78;73.09;99062.91;105907;1276;137881;-68
2022/01/09 05:42:55;;;;;;;61.30;31.30;;;;;;;-1.79;72.91;99064.27;106062;1276;97857;-69
2022/01/09 05:45:26;;;;;;;60.80;31.30;;;;;;;-1.80;73.07;99063.23;105962;1276;139741;-71
2022/01/09 05:47:59;;;;;;;61.10;30.90;;;;;;;-1.79;73.04;99061.20;106074;1276;112117;-70
2022/01/09 05:50:32;;;;;;;63.60;31.80;;;;;;;-1.76;73.11;99059.83;105928;1276;139600;-70
2022/01/09 05:53:03;;;;;;;60.70;32.20;;;;;;;-1.74;72.96;99059.31;106081;1276;108290;-70
2022/01/09 05:55:35;;;;;;;60.60;32.90;;;;;;;-1.72;72.78;99055.39;106076;1276;97213;-69
2022/01/09 05:58:07;;;;;;;70.00;34.50;;;;;;;-1.71;72.56;99052.48;107166;1276;139499;-70
2022/01/09 06:00:39;;;;;;;63.90;33.70;;;;;;;-1.72;72.90;99057.95;106701;1276;112388;-69
2022/01/09 06:03:11;;;;;;;66.40;33.80;;;;;;;-1.75;72.55;99051.31;107218;1276;139381;-70
2022/01/09 06:05:43;;;;;;;66.20;33.60;;;;;;;-1.77;72.89;99051.33;107110;1276;107966;-70
2022/01/09 06:08:14;;;;;;;62.10;32.60;;;;;;;-1.80;72.85;99049.42;105938;1276;139198;-68
2022/01/09 06:10:46;;;;;;;66.20;32.80;;;;;;;-1.83;72.91;99054.89;106043;1276;98039;-69
2022/01/09 06:13:18;;;;;;;64.10;31.40;;;;;;;-1.84;72.78;99053.02;106014;1276;110854;-68
2022/01/09 06:15:50;;;;;;;60.30;31.60;;;;;;;-1.84;72.83;99056.42;106167;1276;138596;-69
2022/01/09 06:18:22;;;;;;;66.10;32.40;;;;;;;-1.85;72.76;99056.59;106095;1276;108812;-70
2022/01/09 06:20:54;;;;;;;68.30;33.40;;;;;;;-1.85;72.62;99057.80;107379;1276;139089;-70
2022/01/09 06:23:26;;;;;;;65.80;32.80;;;;;;;-1.87;72.94;99054.39;107416;1276;96071;-70
2022/01/09 06:25:58;;;;;;;65.30;33.80;;;;;;;-1.90;72.63;99056.44;106035;1276;112124;-70
2022/01/09 06:28:30;;;;;;;63.70;34.00;;;;;;;-1.92;73.11;99055.60;106034;1276;138223;-70
2022/01/09 06:31:02;;;;;;;61.10;32.10;;;;;;;-1.96;72.81;99054.23;105964;1278;107332;-68
2022/01/09 06:33:34;;;;;;;59.90;31.50;;;;;;;-2.00;73.08;99055.92;105963;1276;138731;-70
2022/01/09 06:36:06;;;;;;;63.60;31.60;;;;;;;-2.02;72.95;99053.04;105961;1276;97992;-69
2022/01/09 06:38:38;;;;;;;59.60;31.40;;;;;;;-2.03;73.02;99053.90;107393;1276;138907;-70
2022/01/09 06:41:10;;;;;;;61.70;31.40;;;;;;;-2.01;72.99;99056.27;107500;1276;109368;-70
2022/01/09 06:43:44;;;;;;;68.50;32.90;;;;;;;-2.00;73.18;99064.44;107437;1276;109198;-70
2022/01/09 06:46:16;;;;;;;67.70;33.50;;;;;;;-2.01;72.86;99062.91;106095;1276;138480;-69
2022/01/09 06:48:47;;;;;;;65.80;33.20;;;;;;;-2.01;73.01;99062.23;106121;1276;97854;-69
2022/01/09 06:51:19;;;;;;;65.20;33.50;;;;;;;-2.01;72.74;99062.92;106348;1276;137951;-69
2022/01/09 06:53:51;;;;;;;69.90;34.50;;;;;;;-2.03;72.74;99061.89;106120;1276;108735;-70
2022/01/09 06:56:23;;;;;;;63.50;33.90;;;;;;;-2.05;72.82;99062.41;105895;1276;139402;-70
2022/01/09 06:58:54;;;;;;;66.40;32.10;;;;;;;-2.07;72.94;99061.23;106058;1276;97839;-71
2022/01/09 07:01:26;;;;;;;63.40;31.10;;;;;;;-2.09;72.94;99061.23;106064;1276;97716;-70
2022/01/09 07:03:58;;;;;;;64.10;31.70;;;;;;;-2.07;73.01;99065.31;105943;1276;138634;-70
2022/01/09 07:06:30;;;;;;;64.80;32.20;;;;;;;-2.03;72.99;99068.71;106032;1276;107018;-70
2022/01/09 07:09:02;;;;;;;65.80;31.90;;;;;;;-1.99;72.53;99070.41;105937;1276;139147;-70
2022/01/09 07:11:34;;;;;;;70.30;34.60;;;;;;;-1.95;72.64;99072.64;105986;1276;98424;-70
2022/01/09 07:14:06;;;;;;;70.10;34.70;;;;;;;-1.92;72.82;99076.38;106079;1276;97874;-69
2022/01/09 07:16:38;;;;;;;71.90;35.40;;;;;;;-1.88;72.68;99075.35;107382;1276;137610;-68
2022/01/09 07:19:10;;;;;;;69.30;34.90;;;;;;;-1.80;72.22;99075.51;107029;1276;107199;-69
2022/01/09 07:21:42;;;;;;;66.20;33.80;;;;;;;-1.70;72.27;99077.71;105938;1276;138059;-69
2022/01/09 07:24:14;;;;;;;68.10;34.00;;;;;;;-1.58;71.73;99081.79;106007;1276;97840;-69
2022/01/09 07:26:45;;;;;;;69.90;35.50;;;;;;;-1.45;71.88;99080.73;105976;1276;138217;-70
2022/01/09 07:29:17;;;;;;;68.70;34.80;;;;;;;-1.32;71.50;99080.67;106054;1276;112524;-69
2022/01/09 07:31:51;;;;;;;66.10;33.50;;;;;;;-1.18;70.92;99080.30;106008;1276;108351;-70
2022/01/09 07:34:23;;;;;;;65.50;33.60;;;;;;;-1.02;71.01;99083.82;105910;1276;139122;-70
2022/01/09 07:36:55;;;;;;;62.50;31.80;;;;;;;-0.85;70.97;99079.48;106047;1276;97829;-69
2022/01/09 07:39:28;;;;;;;66.60;33.00;;;;;;;-0.66;70.74;99074.42;105984;1276;139666;-69
2022/01/09 07:42:00;;;;;;;61.20;34.10;;;;;;;-0.44;70.32;99071.56;105999;1276;113423;-69
2022/01/09 07:44:32;;;;;;;68.10;35.10;;;;;;;-0.23;69.89;99072.42;105957;1276;138489;-69
2022/01/09 07:47:04;;;;;;;64.00;34.20;;;;;;;-0.03;69.51;99074.15;105979;1276;107688;-69
2022/01/09 07:49:36;;;;;;;66.80;32.90;;;;;;;0.16;69.22;99078.08;106088;1276;97848;-69
2022/01/09 07:52:09;;;;;;;67.10;36.10;;;;;;;0.32;68.38;99071.61;105921;1278;137643;-69
2022/01/09 07:54:41;;;;;;;66.00;35.20;;;;;;;0.43;67.67;99067.06;106953;1276;112748;-69
2022/01/09 07:57:13;;;;;;;67.90;35.20;;;;;;;0.54;67.19;99070.02;105945;1276;137692;-69
2022/01/09 07:59:45;;;;;;;63.90;34.90;;;;;;;0.66;66.99;99065.95;106002;1276;109096;-70
2022/01/09 08:02:16;;;;;;;65.20;35.40;;;;;;;0.77;66.67;99063.44;106387;1276;137840;-69
2022/01/09 08:04:48;;;;;;;66.40;34.20;;;;;;;0.93;66.09;99063.42;107509;1276;95767;-71
2022/01/09 08:07:20;;;;;;;61.10;34.20;;;;;;;1.07;66.22;99064.78;107497;1276;112617;-70
2022/01/09 08:09:52;;;;;;;63.90;36.00;;;;;;;1.17;64.53;99069.61;107378;1276;139261;-71
2022/01/09 08:12:24;;;;;;;70.10;35.80;;;;;;;1.24;64.80;99061.98;107467;1276;108326;-71
2022/01/09 08:14:57;;;;;;;65.10;36.00;;;;;;;1.34;64.14;99068.36;106787;1276;139430;-70
2022/01/09 08:17:29;;;;;;;63.40;36.60;;;;;;;1.40;63.98;99065.86;106032;1276;97971;-71
2022/01/09 08:20:00;;;;;;;63.40;36.10;;;;;;;1.49;63.56;99068.85;105979;1276;112232;-71
2022/01/09 08:22:33;;;;;;;63.00;34.50;;;;;;;1.54;63.22;99066.02;105961;1276;137985;-70
2022/01/09 08:25:06;;;;;;;62.40;33.70;;;;;;;1.66;63.47;99065.84;106059;1277;108920;-69
2022/01/09 08:27:38;;;;;;;56.20;33.70;;;;;;;1.78;62.89;99066.34;106391;1277;137996;-69
2022/01/09 08:30:11;;;;;;;66.30;34.10;;;;;;;1.82;61.93;99071.60;106059;1276;97953;-70
2022/01/09 08:32:43;;;;;;;55.20;33.10;;;;;;;1.88;62.41;99073.55;106287;1276;138428;-70
2022/01/09 08:35:16;;;;;;;58.90;34.50;;;;;;;1.95;61.68;99079.60;106096;1276;108959;-70
2022/01/09 08:37:48;;;;;;;55.30;33.50;;;;;;;2.00;61.76;99073.03;106049;1276;108917;-71
2022/01/09 08:40:22;;;;;;;58.80;34.60;;;;;;;2.06;61.51;99082.35;105976;1276;137705;-70
2022/01/09 08:42:54;;;;;;;58.50;32.80;;;;;;;2.12;61.28;99079.15;107482;1276;95910;-71
2022/01/09 08:45:26;;;;;;;60.50;33.20;;;;;;;2.18;61.24;99081.48;106531;1276;137805;-70
2022/01/09 08:47:57;;;;;;;59.10;33.30;;;;;;;2.30;61.37;99078.69;106012;1276;109262;-69
2022/01/09 08:50:31;;;;;;;60.60;33.00;;;;;;;2.43;61.35;99078.10;105955;1276;139046;-71
2022/01/09 08:53:04;;;;;;;53.00;31.70;;;;;;;2.57;60.72;99077.02;106023;1276;97853;-70
2022/01/09 08:55:35;;;;;;;52.40;31.40;;;;;;;2.67;60.50;99076.29;107453;1276;96632;-71
2022/01/09 08:58:07;;;;;;;52.30;31.10;;;;;;;2.73;60.38;99070.52;107341;1276;137476;-71
2022/01/09 09:00:39;;;;;;;52.00;30.70;;;;;;;2.81;59.96;99077.56;107501;1276;107878;-71
2022/01/09 09:03:11;;;;;;;46.50;29.30;;;;;;;2.85;59.71;99079.71;107313;1277;138662;-71
2022/01/09 09:05:43;;;;;;;54.30;30.90;;;;;;;2.89;59.83;99078.78;106047;1277;97945;-71
2022/01/09 09:08:14;;;;;;;51.10;29.40;;;;;;;3.01;59.92;99072.70;105922;1278;97948;-71
2022/01/09 09:10:47;;;;;;;45.50;29.20;;;;;;;3.18;60.20;99069.25;105801;1277;137527;-71
2022/01/09 09:13:19;;;;;;;50.40;29.50;;;;;;;3.39;59.94;99076.36;105861;1277;107648;-70
2022/01/09 09:15:50;;;;;;;46.20;28.00;;;;;;;3.47;58.68;99082.04;106011;1277;138207;-69
2022/01/09 09:18:22;;;;;;;48.00;29.40;;;;;;;3.45;58.18;99086.05;107484;1276;96194;-70
2022/01/09 09:20:54;;;;;;;46.30;28.50;;;;;;;3.53;58.89;99082.94;106487;1276;138138;-70
2022/01/09 09:23:26;;;;;;;47.90;28.30;;;;;;;3.70;58.84;99076.36;107440;1277;112473;-70
2022/01/09 09:25:58;;;;;;;44.70;27.40;;;;;;;3.82;58.58;99079.34;106008;1277;139309;-69
2022/01/09 09:28:30;;;;;;;48.90;28.30;;;;;;;3.85;57.61;99084.09;106072;1277;109430;-70
2022/01/09 09:31:07;;;;;;;47.60;29.30;;;;;;;3.79;57.53;99088.02;106099;1277;97824;-71
2022/01/09 09:33:39;;;;;;;48.80;30.00;;;;;;;3.67;56.99;99086.06;105948;1277;137935;-71
2022/01/09 09:36:10;;;;;;;45.70;29.50;;;;;;;3.60;57.90;99076.06;106084;1277;112609;-71
2022/01/09 09:38:42;;;;;;;45.00;28.20;;;;;;;3.58;57.44;99082.28;105942;1277;137862;-71
2022/01/09 09:41:14;;;;;;;47.10;29.40;;;;;;;3.55;57.50;99089.06;106036;1277;108325;-70
2022/01/09 09:43:46;;;;;;;51.80;30.80;;;;;;;3.47;57.44;99085.82;105941;1277;138809;-69
2022/01/09 09:46:21;;;;;;;49.60;28.70;;;;;;;3.46;57.72;99086.70;106012;1277;97836;-70
2022/01/09 09:48:54;;;;;;;49.50;30.60;;;;;;;3.47;57.91;99085.13;106046;1276;111808;-70
2022/01/09 09:51:28;;;;;;;50.10;31.00;;;;;;;3.58;58.25;99079.90;105951;1276;137719;-70
2022/01/09 09:54:01;;;;;;;52.90;30.60;;;;;;;3.72;57.84;99077.01;106066;1277;108815;-71
2022/01/09 09:56:33;;;;;;;48.40;29.50;;;;;;;3.82;57.73;99081.42;105963;1277;137723;-70
2022/01/09 09:59:05;;;;;;;45.50;28.30;;;;;;;3.88;57.58;99082.45;106074;1277;97872;-71
2022/01/09 10:01:38;;;;;;;46.00;29.20;;;;;;;3.96;57.60;99078.34;106041;1277;113264;-70
2022/01/09 10:04:11;;;;;;;43.30;28.40;;;;;;;4.02;57.37;99075.42;107380;1276;138299;-71
2022/01/09 10:06:44;;;;;;;45.90;29.40;;;;;;;4.13;57.24;99074.65;107344;1276;109244;-69
2022/01/09 10:09:18;;;;;;;45.30;28.60;;;;;;;4.25;56.91;99073.46;107279;1276;140099;-75
2022/01/09 10:11:52;;;;;;;44.90;27.60;;;;;;;4.35;56.84;99064.63;107261;1277;95749;-70
2022/01/09 10:14:26;;;;;;;47.50;29.50;;;;;;;4.43;56.78;99063.02;105925;1277;137861;-70
2022/01/09 10:17:16;;;;;;;41.90;26.40;;;;;;;4.54;56.86;99061.55;105919;1277;109157;-70
2022/01/09 10:19:54;;;;;;;46.50;28.20;;;;;;;4.72;57.00;99059.83;105596;1277;138282;-73
2022/01/09 10:22:30;;;;;;;45.10;27.00;;;;;;;4.89;56.10;99057.14;105813;1277;97849;-74
2022/01/09 10:25:30;;;;;;;42.80;26.80;;;;;;;4.89;55.45;99060.25;106023;1277;97864;-71
2022/01/09 10:28:05;;;;;;;47.00;27.10;;;;;;;4.79;55.05;99057.40;107102;1277;137408;-71
2022/01/09 10:30:40;;;;;;;42.50;27.20;;;;;;;4.78;54.93;99057.23;107358;1276;108143;-71
2022/01/09 10:33:14;;;;;;;41.60;26.20;;;;;;;4.75;55.18;99056.65;105912;1277;138380;-71
2022/01/09 10:35:47;;;;;;;44.20;26.60;;;;;;;4.75;54.89;99054.95;105893;1277;97866;-71
2022/01/09 10:38:24;;;;;;;40.90;26.00;;;;;;;4.77;55.62;99050.22;105895;1277;139668;-70
2022/01/09 10:40:58;;;;;;;48.40;27.90;;;;;;;4.87;55.57;99047.21;106067;1277;112122;-71
2022/01/09 10:43:37;;;;;;;42.50;25.60;;;;;;;4.97;55.98;99045.21;106092;1277;107710;-71
2022/01/09 10:46:09;;;;;;;42.30;26.10;;;;;;;5.18;56.21;99040.44;105892;1276;139005;-69
2022/01/09 10:48:44;;;;;;;40.80;25.20;;;;;;;5.34;55.60;99035.30;105963;1277;97941;-71
2022/01/09 10:51:17;;;;;;;40.00;24.70;;;;;;;5.52;55.87;99028.23;105940;1277;137862;-71
2022/01/09 10:53:49;;;;;;;38.10;23.70;;;;;;;5.76;55.49;99033.84;106072;1277;112527;-72
2022/01/09 10:56:25;;;;;;;39.20;23.20;;;;;;;5.88;54.68;99025.16;105952;1277;138839;-72
2022/01/09 10:58:58;;;;;;;37.50;23.50;;;;;;;5.86;54.01;99028.14;106062;1276;108656;-72
2022/01/09 11:01:31;;;;;;;36.30;22.00;;;;;;;5.78;53.84;99025.50;105889;1275;100470;-72
2022/01/09 11:04:07;;;;;;;39.20;23.80;;;;;;;5.71;54.22;99015.02;105804;1277;138304;-71
2022/01/09 11:06:40;;;;;;;33.70;21.40;;;;;;;5.69;54.35;99011.61;106084;1276;111968;-71
2022/01/09 11:09:13;;;;;;;34.20;20.90;;;;;;;5.63;53.06;99010.98;105943;1276;138365;-71
2022/01/09 11:11:47;;;;;;;33.70;20.80;;;;;;;5.45;53.79;99004.48;106019;1276;109043;-71
2022/01/09 11:14:22;;;;;;;35.20;21.50;;;;;;;5.55;54.82;99007.08;106822;1276;138195;-71
2022/01/09 11:16:55;;;;;;;33.30;20.80;;;;;;;5.72;54.34;99009.81;106091;1277;97918;-71
2022/01/09 11:19:27;;;;;;;33.90;20.60;;;;;;;5.72;54.33;99008.08;106016;1277;112554;-71
2022/01/09 11:22:02;;;;;;;34.40;20.60;;;;;;;5.75;53.87;99004.37;105963;1277;137709;-71
2022/01/09 11:24:53;;;;;;;32.00;20.50;;;;;;;5.75;53.99;99000.41;105959;1276;108684;-72
2022/01/09 11:27:35;;;;;;;38.60;22.00;;;;;;;5.83;54.63;99000.48;105925;1276;138783;-72
2022/01/09 11:30:10;;;;;;;41.20;23.20;;;;;;;5.97;54.87;99001.43;105968;1276;97852;-72
2022/01/09 11:32:50;;;;;;;43.50;25.10;;;;;;;6.13;54.77;99000.71;105827;1277;137768;-73
2022/01/09 11:35:35;;;;;;;39.60;24.80;;;;;;;6.27;54.40;98997.48;105905;1276;107962;-71